Time;durP1;ratioP1;P1;durP2;ratioP2;P2;SDS_P1;SDS_P2;PMS_P1;PMS_P2;Temp;Humidity;BMP_temperature;BMP_pressure;BME280_temperature;BME280_humidity;BME280_pressure;Samples;Min_cycle;Max_cycle;Signal;HPM_P1;HPM_P2
2024/01/21 00:00:26;;;;;;;9.60;8.80;;;1.10;1.00;;;;;;5094108;28;20185;-63
2024/01/21 00:02:52;;;;;;;8.83;8.13;;;1.30;99.90;;;;;;5093454;28;20193;-63
2024/01/21 00:05:17;;;;;;;9.10;8.50;;;1.30;99.90;;;;;;5093217;28;20173;-63
2024/01/21 00:07:43;;;;;;;9.20;8.50;;;1.20;99.90;;;;;;5093633;28;20185;-63
2024/01/21 00:10:09;;;;;;;8.37;7.77;;;1.20;99.90;;;;;;5093460;28;20192;-63
2024/01/21 00:12:36;;;;;;;8.90;8.30;;;1.10;99.90;;;;;;5093599;28;20174;-63
2024/01/21 00:15:02;;;;;;;8.23;7.73;;;1.00;99.90;;;;;;5093576;28;20205;-63
2024/01/21 00:17:28;;;;;;;7.97;7.47;;;1.20;99.90;;;;;;5093249;28;20276;-63
2024/01/21 00:19:54;;;;;;;8.20;7.70;;;1.20;99.90;;;;;;5093055;28;20201;-63
2024/01/21 00:22:19;;;;;;;8.83;8.27;;;1.30;99.90;;;;;;5093882;28;20560;-63
2024/01/21 00:24:45;;;;;;;8.67;8.07;;;1.30;99.90;;;;;;5093170;28;20212;-63
2024/01/21 00:27:11;;;;;;;8.43;7.73;;;1.40;99.90;;;;;;5093239;28;20268;-63
2024/01/21 00:29:37;;;;;;;8.63;7.93;;;1.40;99.90;;;;;;5093333;28;20559;-63
2024/01/21 00:32:03;;;;;;;9.10;8.50;;;1.50;99.90;;;;;;5093056;28;20180;-63
2024/01/21 00:34:29;;;;;;;8.50;8.00;;;1.50;99.90;;;;;;5092836;28;20218;-62
2024/01/21 00:36:54;;;;;;;8.97;8.37;;;1.60;99.90;;;;;;5093336;28;20268;-63
2024/01/21 00:39:20;;;;;;;8.93;8.33;;;1.60;99.90;;;;;;5093120;28;20650;-63
2024/01/21 00:41:46;;;;;;;8.93;8.33;;;1.70;99.90;;;;;;5093142;28;20193;-63
2024/01/21 00:44:11;;;;;;;8.87;8.27;;;1.70;99.90;;;;;;5093170;28;20169;-63
2024/01/21 00:46:38;;;;;;;8.30;7.70;;;1.80;99.90;;;;;;5093122;28;20166;-63
2024/01/21 00:49:04;;;;;;;8.70;8.10;;;1.90;99.90;;;;;;5092948;28;20169;-63
2024/01/21 00:51:30;;;;;;;8.60;8.00;;;1.90;99.90;;;;;;5092834;28;20192;-63
2024/01/21 00:53:56;;;;;;;8.40;7.90;;;1.90;99.90;;;;;;5093289;28;20265;-63
2024/01/21 00:56:22;;;;;;;8.57;7.97;;;1.80;99.90;;;;;;5093170;28;20169;-63
2024/01/21 00:58:48;;;;;;;8.57;8.07;;;1.70;99.90;;;;;;5093046;28;20178;-61
2024/01/21 01:01:13;;;;;;;8.33;7.83;;;2.20;99.90;;;;;;5093233;28;20208;-63
2024/01/21 01:03:39;;;;;;;8.30;7.70;;;2.30;99.90;;;;;;5096515;28;20193;-63
2024/01/21 01:06:05;;;;;;;8.73;8.10;;;2.30;99.90;;;;;;5096632;28;20165;-63
2024/01/21 01:08:31;;;;;;;8.70;8.10;;;2.30;99.90;;;;;;5096488;28;20276;-63
2024/01/21 01:10:57;;;;;;;8.20;7.70;;;2.40;99.90;;;;;;5096370;28;20166;-63
2024/01/21 01:13:22;;;;;;;8.80;8.20;;;2.40;99.90;;;;;;5096343;28;20177;-62
2024/01/21 01:15:48;;;;;;;8.40;7.70;;;2.40;99.90;;;;;;5097027;28;20177;-63
2024/01/21 01:18:14;;;;;;;8.20;7.60;;;2.40;99.90;;;;;;5096132;28;20197;-63
2024/01/21 01:20:40;;;;;;;8.40;7.80;;;2.50;99.90;;;;;;5096093;28;20647;-62
2024/01/21 01:23:06;;;;;;;8.27;7.67;;;2.50;99.90;;;;;;5096304;28;20189;-63
2024/01/21 01:25:31;;;;;;;8.40;7.80;;;2.50;99.90;;;;;;5096237;28;20205;-63
2024/01/21 01:27:57;;;;;;;8.73;8.03;;;2.50;99.90;;;;;;5111551;28;20200;-63
2024/01/21 01:30:23;;;;;;;8.13;7.63;;;2.50;99.90;;;;;;5111606;27;20181;-63
2024/01/21 01:32:49;;;;;;;9.20;8.50;;;2.60;99.90;;;;;;5094864;28;20177;-63
2024/01/21 01:35:15;;;;;;;8.83;8.17;;;2.50;99.90;;;;;;5118349;27;20254;-62
2024/01/21 01:37:41;;;;;;;8.50;7.90;;;2.60;99.90;;;;;;5133132;27;20188;-62
2024/01/21 01:40:07;;;;;;;8.70;8.10;;;2.60;99.90;;;;;;5125791;27;20717;-63
2024/01/21 01:42:33;;;;;;;9.33;8.43;;;2.60;99.90;;;;;;5118090;27;20677;-63
2024/01/21 01:45:00;;;;;;;8.77;8.07;;;2.50;99.90;;;;;;5119182;27;20584;-62
2024/01/21 01:47:25;;;;;;;9.20;8.50;;;2.50;99.90;;;;;;5125801;27;20188;-63
2024/01/21 01:49:54;;;;;;;9.43;8.63;;;2.50;99.90;;;;;;5122395;27;20225;-61
2024/01/21 01:52:19;;;;;;;8.80;8.00;;;2.60;99.90;;;;;;5135787;27;20190;-62
2024/01/21 01:54:48;;;;;;;9.33;8.40;;;2.50;99.90;;;;;;5115937;28;20588;-63
2024/01/21 01:57:18;;;;;;;8.97;8.20;;;2.50;99.90;;;;;;5128436;27;20684;-63
2024/01/21 01:59:43;;;;;;;8.87;8.27;;;2.50;99.90;;;;;;5121687;27;20189;-62
2024/01/21 02:02:10;;;;;;;9.10;8.40;;;2.40;99.90;;;;;;5096314;27;20258;-63
2024/01/21 02:04:36;;;;;;;9.03;8.23;;;2.40;99.90;;;;;;5126383;27;20168;-63
2024/01/21 02:07:02;;;;;;;8.67;8.00;;;2.40;99.90;;;;;;5124894;27;20202;-62
2024/01/21 02:09:28;;;;;;;8.27;7.67;;;2.30;99.90;;;;;;5121199;27;20176;-63
2024/01/21 02:11:53;;;;;;;8.67;8.00;;;2.40;99.90;;;;;;5136419;27;20705;-62
2024/01/21 02:14:20;;;;;;;8.57;7.87;;;2.40;99.90;;;;;;5122179;27;20547;-63
2024/01/21 02:16:45;;;;;;;9.23;8.53;;;2.50;99.90;;;;;;5126304;27;20283;-63
2024/01/21 02:19:24;;;;;;;9.17;8.47;;;2.50;99.90;;;;;;5115346;28;20208;-62
2024/01/21 02:21:50;;;;;;;9.40;8.60;;;2.40;99.90;;;;;;5115182;28;20188;-63
2024/01/21 02:24:16;;;;;;;8.90;8.20;;;2.50;99.90;;;;;;5115375;28;20177;-63
2024/01/21 02:26:41;;;;;;;9.43;8.63;;;2.50;99.90;;;;;;5115879;28;20157;-63
2024/01/21 02:29:07;;;;;;;9.10;8.40;;;2.60;99.90;;;;;;5114067;28;20334;-63
2024/01/21 02:31:33;;;;;;;8.77;8.07;;;2.60;99.90;;;;;;5100129;28;20672;-63
2024/01/21 02:33:59;;;;;;;9.07;8.10;;;2.60;99.90;;;;;;5094447;28;20638;-63
2024/01/21 02:36:24;;;;;;;10.07;8.13;;;2.50;99.90;;;;;;5094853;28;20177;-62
2024/01/21 02:38:50;;;;;;;8.40;7.80;;;2.60;99.90;;;;;;5095062;28;20166;-63
2024/01/21 02:41:16;;;;;;;9.53;8.80;;;2.60;99.90;;;;;;5095020;28;20746;-63
2024/01/21 02:43:42;;;;;;;8.97;8.27;;;2.60;99.90;;;;;;5095231;28;20529;-63
2024/01/21 02:46:07;;;;;;;8.57;7.90;;;2.70;99.90;;;;;;5094731;28;20169;-63
2024/01/21 02:48:33;;;;;;;8.30;7.70;;;2.70;99.90;;;;;;5094508;28;20603;-63
2024/01/21 02:50:59;;;;;;;8.40;7.80;;;2.70;99.90;;;;;;5094313;28;20185;-63
2024/01/21 02:53:25;;;;;;;8.13;7.60;;;2.60;99.90;;;;;;5094880;28;20181;-63
2024/01/21 02:55:51;;;;;;;8.23;7.63;;;2.60;99.90;;;;;;5094486;28;20256;-63
2024/01/21 02:58:17;;;;;;;8.40;7.80;;;2.60;99.90;;;;;;5094130;28;20201;-63
2024/01/21 03:00:42;;;;;;;8.70;8.00;;;2.90;99.90;;;;;;5094421;28;20181;-63
2024/01/21 03:03:10;;;;;;;8.60;8.10;;;2.90;99.90;;;;;;5094717;28;20206;-63
2024/01/21 03:05:36;;;;;;;7.83;7.23;;;2.90;99.90;;;;;;5093965;28;20176;-63
2024/01/21 03:08:02;;;;;;;8.53;7.93;;;2.90;99.90;;;;;;5094129;28;20205;-63
2024/01/21 03:10:28;;;;;;;8.10;7.60;;;2.90;99.90;;;;;;5094038;28;20252;-63
2024/01/21 03:12:54;;;;;;;8.80;8.10;;;2.90;44.70;;;;;;5094019;28;20645;-63
2024/01/21 03:15:20;;;;;;;8.30;7.70;;;3.10;44.40;;;;;;5093898;28;20204;-63
2024/01/21 03:17:45;;;;;;;8.67;7.97;;;3.10;42.20;;;;;;5094554;28;20193;-63
2024/01/21 03:20:11;;;;;;;9.17;8.30;;;3.20;33.40;;;;;;5093984;28;20185;-63
2024/01/21 03:22:37;;;;;;;9.10;8.40;;;3.20;40.80;;;;;;5094279;28;20199;-63
2024/01/21 03:25:03;;;;;;;8.23;7.63;;;3.30;1.00;;;;;;5094040;28;20181;-63
2024/01/21 03:27:29;;;;;;;8.53;7.70;;;3.30;20.70;;;;;;5093679;28;20193;-63
2024/01/21 03:29:55;;;;;;;8.77;8.17;;;3.30;50.10;;;;;;5093619;28;20649;-62
2024/01/21 03:32:21;;;;;;;8.70;8.00;;;3.20;48.90;;;;;;5092390;28;20709;-63
2024/01/21 03:34:47;;;;;;;8.33;7.73;;;3.10;81.60;;;;;;5093657;28;20181;-63
2024/01/21 03:37:12;;;;;;;8.33;7.70;;;3.10;38.00;;;;;;5093567;28;20246;-63
2024/01/21 03:39:38;;;;;;;8.90;8.20;;;3.20;21.50;;;;;;5094012;28;20253;-63
2024/01/21 03:42:04;;;;;;;8.53;7.93;;;3.30;5.80;;;;;;5093656;28;20200;-63
2024/01/21 03:44:30;;;;;;;8.67;7.93;;;3.20;37.60;;;;;;5093654;28;20184;-63
2024/01/21 03:46:56;;;;;;;9.00;8.30;;;3.20;22.10;;;;;;5093605;28;20189;-63
2024/01/21 03:49:22;;;;;;;8.40;7.70;;;3.20;28.30;;;;;;5093387;28;20515;-63
2024/01/21 03:51:48;;;;;;;8.47;7.70;;;3.10;37.20;;;;;;5093114;28;20197;-63
2024/01/21 03:54:13;;;;;;;8.83;8.13;;;3.10;99.90;;;;;;5093640;28;20253;-63
2024/01/21 03:56:39;;;;;;;8.70;8.00;;;3.10;99.90;;;;;;5093474;28;20197;-62
2024/01/21 03:59:05;;;;;;;8.53;7.83;;;3.10;99.90;;;;;;5094059;28;20187;-63
2024/01/21 04:01:31;;;;;;;8.57;7.87;;;3.10;99.90;;;;;;5093540;28;20200;-63
2024/01/21 04:03:56;;;;;;;9.03;8.17;;;3.20;99.90;;;;;;5093001;28;20181;-62
2024/01/21 04:06:22;;;;;;;8.60;7.90;;;3.20;99.90;;;;;;5093573;28;20215;-63
2024/01/21 04:08:49;;;;;;;8.93;8.23;;;3.20;99.10;;;;;;5093809;28;20659;-62
2024/01/21 04:11:14;;;;;;;8.23;7.73;;;3.10;99.90;;;;;;5093375;28;20176;-63
2024/01/21 04:13:40;;;;;;;8.87;8.20;;;3.00;1.00;;;;;;5093335;28;20184;-63
2024/01/21 04:16:06;;;;;;;8.60;8.00;;;3.00;6.80;;;;;;5093775;28;20179;-62
2024/01/21 04:18:32;;;;;;;7.87;7.37;;;2.90;99.90;;;;;;5093289;28;20228;-63
2024/01/21 04:21:00;;;;;;;8.23;7.47;;;2.90;95.90;;;;;;5091635;28;20177;-63
2024/01/21 04:23:27;;;;;;;8.60;8.00;;;3.00;99.90;;;;;;5093219;28;20196;-62
2024/01/21 04:25:52;;;;;;;9.00;8.20;;;3.00;99.90;;;;;;5093436;28;20219;-63
2024/01/21 04:28:18;;;;;;;8.93;8.23;;;3.00;99.90;;;;;;5093118;28;20607;-63
2024/01/21 04:30:45;;;;;;;8.30;7.63;;;3.10;99.90;;;;;;5092947;28;20177;-63
2024/01/21 04:33:10;;;;;;;8.77;8.17;;;3.10;99.90;;;;;;5091679;28;20185;-63
2024/01/21 04:35:37;;;;;;;8.40;7.80;;;3.10;99.90;;;;;;5093440;28;20263;-63
2024/01/21 04:38:03;;;;;;;7.67;7.07;;;3.10;99.90;;;;;;5096405;28;20193;-63
2024/01/21 04:40:29;;;;;;;8.33;7.70;;;3.10;33.60;;;;;;5097450;28;20176;-63
2024/01/21 04:42:54;;;;;;;8.63;8.03;;;3.10;30.60;;;;;;5097154;28;20212;-63
2024/01/21 04:45:20;;;;;;;8.10;7.50;;;3.10;79.10;;;;;;5097194;28;20638;-63
2024/01/21 04:47:46;;;;;;;8.30;7.70;;;3.00;69.30;;;;;;5096944;28;20201;-63
2024/01/21 04:50:12;;;;;;;8.50;7.90;;;3.20;87.70;;;;;;5096462;28;20177;-64
2024/01/21 04:52:37;;;;;;;8.87;8.17;;;3.30;39.90;;;;;;5096733;28;20169;-64
2024/01/21 04:55:03;;;;;;;8.43;7.73;;;3.30;21.90;;;;;;5096898;28;20188;-63
2024/01/21 04:57:29;;;;;;;8.33;7.73;;;3.10;99.90;;;;;;5096977;28;20197;-63
2024/01/21 04:59:55;;;;;;;8.30;7.70;;;3.00;14.10;;;;;;5096701;28;20167;-63
2024/01/21 05:02:21;;;;;;;8.70;7.90;;;2.90;50.00;;;;;;5096804;28;20678;-63
2024/01/21 05:04:46;;;;;;;8.33;7.73;;;2.90;20.90;;;;;;5096259;28;20605;-63
2024/01/21 05:07:12;;;;;;;8.47;7.77;;;2.90;16.30;;;;;;5096182;28;20263;-63
2024/01/21 05:09:38;;;;;;;8.67;7.97;;;2.80;20.30;;;;;;5096549;28;20169;-62
2024/01/21 05:12:04;;;;;;;9.07;8.47;;;2.80;10.50;;;;;;5096274;28;20611;-63
2024/01/21 05:14:30;;;;;;;8.90;8.20;;;2.70;1.00;;;;;;5096194;28;20160;-63
2024/01/21 05:16:55;;;;;;;8.83;8.23;;;2.70;37.60;;;;;;5096201;28;20571;-63
2024/01/21 05:19:22;;;;;;;8.93;8.30;;;2.80;36.10;;;;;;5108863;27;20184;-63
2024/01/21 05:21:48;;;;;;;9.07;8.43;;;2.90;56.40;;;;;;5134144;27;20192;-63
2024/01/21 05:24:13;;;;;;;8.77;8.07;;;2.80;29.50;;;;;;5136957;27;20176;-63
2024/01/21 05:26:46;;;;;;;8.57;8.00;;;2.90;17.20;;;;;;5120078;27;20542;-63
2024/01/21 05:29:12;;;;;;;8.80;7.97;;;2.80;58.50;;;;;;5136934;27;20170;-63
2024/01/21 05:31:38;;;;;;;9.43;8.63;;;2.90;30.50;;;;;;5101785;27;20557;-63
2024/01/21 05:34:04;;;;;;;8.57;7.93;;;2.80;49.00;;;;;;5120668;27;20255;-62
2024/01/21 05:36:30;;;;;;;8.70;7.90;;;2.70;18.60;;;;;;5128582;27;20716;-63
2024/01/21 05:38:56;;;;;;;9.13;8.43;;;2.60;20.40;;;;;;5130647;27;20180;-63
2024/01/21 05:41:21;;;;;;;9.03;8.13;;;2.70;22.80;;;;;;5117259;27;20641;-63
2024/01/21 05:43:47;;;;;;;9.00;8.30;;;2.70;7.70;;;;;;5127024;27;20637;-63
2024/01/21 05:46:13;;;;;;;9.17;8.47;;;2.70;21.70;;;;;;5117117;27;20222;-63
2024/01/21 05:48:39;;;;;;;9.40;8.70;;;2.70;30.20;;;;;;5124727;27;20187;-63
2024/01/21 05:51:05;;;;;;;9.70;8.90;;;2.70;55.10;;;;;;5135930;27;20184;-63
2024/01/21 05:53:31;;;;;;;9.70;9.00;;;2.60;1.00;;;;;;5116902;27;20168;-62
2024/01/21 05:55:57;;;;;;;9.43;8.70;;;2.60;1.00;;;;;;5123599;27;20191;-62
2024/01/21 05:58:22;;;;;;;9.40;8.70;;;2.60;1.00;;;;;;5121076;27;20215;-62
2024/01/21 06:00:48;;;;;;;9.07;8.37;;;2.60;1.00;;;;;;5115205;27;20269;-62
2024/01/21 06:03:14;;;;;;;9.87;8.93;;;2.60;2.60;;;;;;5130817;27;20199;-62
2024/01/21 06:05:40;;;;;;;10.00;9.07;;;2.60;31.50;;;;;;5124578;27;20208;-62
2024/01/21 06:08:06;;;;;;;10.00;9.10;;;2.60;15.20;;;;;;5122224;27;20207;-62
2024/01/21 06:10:31;;;;;;;9.43;8.63;;;2.50;9.30;;;;;;5122178;27;20543;-62
2024/01/21 06:12:57;;;;;;;9.83;9.03;;;2.50;26.30;;;;;;5115283;28;20641;-62
2024/01/21 06:15:23;;;;;;;10.10;9.20;;;2.50;46.90;;;;;;5125708;27;20180;-62
2024/01/21 06:17:52;;;;;;;10.07;9.27;;;2.50;1.00;;;;;;5117909;27;20189;-63
2024/01/21 06:20:17;;;;;;;10.00;9.10;;;2.60;31.70;;;;;;5135268;27;20172;-62
2024/01/21 06:22:43;;;;;;;10.27;9.37;;;2.50;64.10;;;;;;5117622;27;20203;-62
2024/01/21 06:25:09;;;;;;;9.70;8.80;;;2.40;67.30;;;;;;5130689;27;20173;-62
2024/01/21 06:27:35;;;;;;;10.00;9.23;;;2.40;90.90;;;;;;5123040;27;20248;-62
2024/01/21 06:30:14;;;;;;;10.33;9.23;;;2.20;90.90;;;;;;5127033;27;20195;-63
2024/01/21 06:32:39;;;;;;;9.63;8.83;;;2.20;93.10;;;;;;5117238;27;20247;-62
2024/01/21 06:35:06;;;;;;;9.93;9.03;;;2.10;99.90;;;;;;5114485;28;20255;-62
2024/01/21 06:37:32;;;;;;;10.40;9.40;;;2.20;22.80;;;;;;5114722;28;20192;-62
2024/01/21 06:39:57;;;;;;;10.40;9.20;;;2.30;86.10;;;;;;5114771;28;20229;-62
2024/01/21 06:42:23;;;;;;;9.80;9.10;;;2.40;81.10;;;;;;5114735;28;20199;-62
2024/01/21 06:44:49;;;;;;;9.90;9.10;;;2.30;99.90;;;;;;5113479;28;20178;-62
2024/01/21 06:47:15;;;;;;;10.17;9.37;;;2.30;96.20;;;;;;5114547;28;20189;-61
2024/01/21 06:49:41;;;;;;;9.57;8.70;;;2.50;96.90;;;;;;5114506;28;20587;-62
2024/01/21 06:52:08;;;;;;;9.60;8.80;;;2.40;99.90;;;;;;5114496;28;20188;-62
2024/01/21 06:54:34;;;;;;;10.50;9.00;;;2.60;99.90;;;;;;5113223;28;20541;-61
2024/01/21 06:57:00;;;;;;;10.50;9.50;;;2.60;99.90;;;;;;5114323;28;20188;-62
2024/01/21 06:59:25;;;;;;;9.97;9.07;;;2.60;99.90;;;;;;5113670;28;20257;-62
2024/01/21 07:01:51;;;;;;;10.37;9.40;;;2.60;99.90;;;;;;5096624;28;20201;-62
2024/01/21 07:04:20;;;;;;;10.23;9.23;;;2.50;99.90;;;;;;5094478;28;20169;-62
2024/01/21 07:06:46;;;;;;;10.10;9.20;;;2.50;99.90;;;;;;5093560;28;20185;-61
2024/01/21 07:09:12;;;;;;;10.50;9.50;;;2.50;99.90;;;;;;5093796;28;20597;-61
2024/01/21 07:11:41;;;;;;;10.07;9.23;;;2.50;99.90;;;;;;5093795;28;20169;-62
2024/01/21 07:14:07;;;;;;;10.50;9.60;;;2.50;99.90;;;;;;5093699;28;20177;-62
2024/01/21 07:16:33;;;;;;;12.17;11.03;;;2.50;99.90;;;;;;5093617;28;20200;-62
2024/01/21 07:18:59;;;;;;;10.60;9.70;;;2.40;99.90;;;;;;5093869;28;20191;-62
2024/01/21 07:21:25;;;;;;;10.57;9.53;;;2.40;99.90;;;;;;5091947;28;20158;-62
2024/01/21 07:23:51;;;;;;;10.33;9.43;;;2.50;99.90;;;;;;5091607;28;20253;-61
2024/01/21 07:26:19;;;;;;;11.10;10.10;;;2.50;99.90;;;;;;5091663;28;20256;-62
2024/01/21 07:28:44;;;;;;;10.17;9.17;;;2.50;99.90;;;;;;5091690;28;20184;-62
2024/01/21 07:31:10;;;;;;;10.70;9.70;;;2.40;99.90;;;;;;5091603;28;20237;-62
2024/01/21 07:33:36;;;;;;;11.47;10.33;;;2.40;99.90;;;;;;5092027;28;20153;-62
2024/01/21 07:36:03;;;;;;;12.40;10.13;;;2.40;99.90;;;;;;5091602;28;20215;-62
2024/01/21 07:38:29;;;;;;;10.40;9.50;;;2.40;99.90;;;;;;5092562;28;20189;-62
2024/01/21 07:40:55;;;;;;;10.83;9.73;;;2.40;99.90;;;;;;5093892;28;20165;-62
2024/01/21 07:43:21;;;;;;;10.87;9.77;;;2.40;99.90;;;;;;5093274;28;20193;-61
2024/01/21 07:45:47;;;;;;;11.10;10.10;;;2.40;99.90;;;;;;5093593;28;20236;-61
2024/01/21 07:48:13;;;;;;;10.83;9.70;;;2.40;99.90;;;;;;5093781;28;20293;-62
2024/01/21 07:50:39;;;;;;;11.20;10.10;;;2.30;99.90;;;;;;5093121;28;20185;-62
2024/01/21 07:53:05;;;;;;;11.13;10.07;;;2.30;99.90;;;;;;5093859;28;20169;-62
2024/01/21 07:55:31;;;;;;;11.93;10.73;;;2.20;99.90;;;;;;5093279;28;20316;-63
2024/01/21 07:57:57;;;;;;;11.63;10.40;;;2.20;1.00;;;;;;5093241;28;20213;-62
2024/01/21 08:00:23;;;;;;;12.37;10.97;;;2.20;1.00;;;;;;5092998;28;20207;-62
2024/01/21 08:02:49;;;;;;;11.20;10.10;;;2.20;1.00;;;;;;5093437;28;20688;-62
2024/01/21 08:05:15;;;;;;;11.80;10.57;;;2.20;1.00;;;;;;5093136;28;20176;-62
2024/01/21 08:07:41;;;;;;;11.70;10.50;;;2.20;1.00;;;;;;5093346;28;20725;-62
2024/01/21 08:10:08;;;;;;;11.43;10.23;;;2.20;1.00;;;;;;5093394;28;20210;-62
2024/01/21 08:12:34;;;;;;;11.40;10.30;;;2.20;1.00;;;;;;5097565;28;20217;-62
2024/01/21 08:15:00;;;;;;;12.40;11.10;;;2.20;1.00;;;;;;5097584;28;20173;-62
2024/01/21 08:17:26;;;;;;;12.27;10.97;;;2.20;1.00;;;;;;5097521;28;20197;-62
2024/01/21 08:19:51;;;;;;;12.07;10.83;;;2.10;1.00;;;;;;5097484;28;20173;-62
2024/01/21 08:22:17;;;;;;;12.30;11.07;;;2.10;99.90;;;;;;5097376;28;20200;-62
2024/01/21 08:24:43;;;;;;;11.50;10.30;;;2.20;1.00;;;;;;5097097;28;20177;-62
2024/01/21 08:27:09;;;;;;;12.73;11.33;;;2.10;1.00;;;;;;5097346;28;20266;-62
2024/01/21 08:29:36;;;;;;;13.63;10.80;;;2.20;1.00;;;;;;5097081;28;20173;-61
2024/01/21 08:32:03;;;;;;;12.53;11.33;;;2.20;1.00;;;;;;5096925;28;20180;-62
2024/01/21 08:34:29;;;;;;;14.60;11.07;;;2.20;97.80;;;;;;5096836;28;20172;-62
2024/01/21 08:36:55;;;;;;;12.87;11.57;;;2.20;1.00;;;;;;5096507;28;20631;-61
2024/01/21 08:39:21;;;;;;;11.57;10.37;;;2.20;1.00;;;;;;5097385;28;20536;-62
2024/01/21 08:41:47;;;;;;;12.93;11.40;;;2.20;1.00;;;;;;5096864;28;20275;-61
2024/01/21 08:44:13;;;;;;;11.47;10.27;;;2.20;1.00;;;;;;5097006;28;20361;-62
2024/01/21 08:46:38;;;;;;;12.93;10.67;;;2.30;1.00;;;;;;5096825;28;20177;-62
2024/01/21 08:49:04;;;;;;;13.83;11.07;;;2.30;1.00;;;;;;5096820;28;20197;-62
2024/01/21 08:51:30;;;;;;;12.93;11.43;;;2.30;1.00;;;;;;5096140;28;20564;-61
2024/01/21 08:53:57;;;;;;;12.80;11.50;;;2.30;1.00;;;;;;5096493;28;20539;-62
2024/01/21 08:56:26;;;;;;;12.73;11.43;;;2.30;1.00;;;;;;5096378;28;20170;-62
2024/01/21 08:58:53;;;;;;;14.40;11.57;;;2.30;65.20;;;;;;5096740;28;20606;-61
2024/01/21 09:01:19;;;;;;;12.33;11.13;;;2.30;1.00;;;;;;5096207;28;20205;-61
2024/01/21 09:03:45;;;;;;;14.17;11.30;;;2.30;1.00;;;;;;5096256;28;20165;-61
2024/01/21 09:06:11;;;;;;;12.57;11.27;;;2.30;1.00;;;;;;5095987;28;20181;-61
2024/01/21 09:08:37;;;;;;;11.90;10.83;;;2.40;1.00;;;;;;5096075;28;20684;-62
2024/01/21 09:11:03;;;;;;;13.97;12.33;;;2.40;99.90;;;;;;5096162;28;20642;-61
2024/01/21 09:13:29;;;;;;;14.00;12.03;;;2.30;99.90;;;;;;5096086;28;20185;-61
2024/01/21 09:15:55;;;;;;;13.30;11.90;;;2.30;36.50;;;;;;5095983;28;20192;-61
2024/01/21 09:18:22;;;;;;;13.67;11.43;;;2.20;1.00;;;;;;5095894;28;20197;-62
2024/01/21 09:20:48;;;;;;;14.03;12.03;;;2.20;47.80;;;;;;5095843;28;20169;-60
2024/01/21 09:23:14;;;;;;;12.73;11.47;;;2.10;1.00;;;;;;5095046;28;20716;-61
2024/01/21 09:25:40;;;;;;;12.13;10.83;;;2.10;83.70;;;;;;5096749;28;20181;-61
2024/01/21 09:28:06;;;;;;;14.27;12.27;;;2.10;99.90;;;;;;5095870;28;20268;-62
2024/01/21 09:30:32;;;;;;;11.50;10.40;;;2.20;40.20;;;;;;5094369;28;20185;-62
2024/01/21 09:32:58;;;;;;;13.30;11.60;;;2.20;42.80;;;;;;5096049;28;20626;-62
2024/01/21 09:35:24;;;;;;;12.37;11.17;;;2.20;1.00;;;;;;5095426;28;20216;-62
2024/01/21 09:37:49;;;;;;;13.80;12.13;;;2.30;21.50;;;;;;5095625;28;20226;-62
2024/01/21 09:40:15;;;;;;;12.67;11.37;;;2.40;99.90;;;;;;5095668;28;20173;-62
2024/01/21 09:42:42;;;;;;;13.30;11.47;;;2.50;99.90;;;;;;5095504;28;20238;-61
2024/01/21 09:45:10;;;;;;;14.17;11.33;;;2.50;99.90;;;;;;5095794;28;20183;-61
2024/01/21 09:47:37;;;;;;;13.00;11.63;;;2.60;99.90;;;;;;5095397;28;20189;-61
2024/01/21 09:50:07;;;;;;;12.70;11.40;;;2.70;99.90;;;;;;5095199;28;20206;-62
2024/01/21 09:52:33;;;;;;;12.57;11.33;;;2.70;73.60;;;;;;5094197;28;20288;-61
2024/01/21 09:54:59;;;;;;;15.07;12.67;;;2.70;99.90;;;;;;5095627;28;20689;-62
2024/01/21 09:57:24;;;;;;;13.27;11.80;;;2.70;1.00;;;;;;5094185;28;20189;-62
2024/01/21 09:59:50;;;;;;;13.23;11.37;;;2.70;1.00;;;;;;5095310;28;20223;-62
2024/01/21 10:02:16;;;;;;;13.97;11.20;;;2.80;1.00;;;;;;5097750;28;20654;-62
2024/01/21 10:04:44;;;;;;;13.97;12.13;;;2.80;1.00;;;;;;5105144;28;20184;-62
2024/01/21 10:07:12;;;;;;;15.63;11.83;;;2.80;1.00;;;;;;5112570;27;20192;-61
2024/01/21 10:09:39;;;;;;;14.83;11.83;;;2.90;1.00;;;;;;5098354;28;20158;-61
2024/01/21 10:12:06;;;;;;;13.77;12.37;;;2.90;1.00;;;;;;5095802;28;20170;-61
2024/01/21 10:14:32;;;;;;;13.03;11.23;;;2.90;1.00;;;;;;5095435;28;20189;-62
2024/01/21 10:16:59;;;;;;;13.57;12.10;;;2.90;99.90;;;;;;5095243;28;20286;-61
2024/01/21 10:19:26;;;;;;;13.13;11.80;;;3.00;99.90;;;;;;5095483;28;20173;-61
2024/01/21 10:22:09;;;;;;;13.33;11.80;;;3.00;1.00;;;;;;5094671;28;20242;-62
2024/01/21 10:24:46;;;;;;;13.30;11.27;;;3.10;1.00;;;;;;5095436;28;20160;-62
2024/01/21 10:27:13;;;;;;;12.97;11.53;;;3.10;99.90;;;;;;5094527;28;20196;-62
2024/01/21 10:29:43;;;;;;;14.53;12.43;;;3.10;1.00;;;;;;5101250;28;20169;-61
2024/01/21 10:32:10;;;;;;;13.73;12.03;;;3.10;1.00;;;;;;5098187;28;20177;-61
2024/01/21 10:34:49;;;;;;;13.50;11.63;;;3.20;99.90;;;;;;5094087;28;20165;-62
2024/01/21 10:37:15;;;;;;;12.60;11.30;;;3.30;99.90;;;;;;5094933;28;20294;-62
2024/01/21 10:39:45;;;;;;;12.30;11.13;;;3.30;1.00;;;;;;5097128;28;20169;-61
2024/01/21 10:42:15;;;;;;;14.20;11.73;;;3.40;99.90;;;;;;5103803;28;20201;-62
2024/01/21 10:44:41;;;;;;;11.87;10.67;;;3.50;99.90;;;;;;5104681;28;20169;-62
2024/01/21 10:47:11;;;;;;;14.33;12.07;;;3.50;99.90;;;;;;5104409;28;20653;-62
2024/01/21 10:49:39;;;;;;;11.60;10.40;;;3.50;1.00;;;;;;5115865;28;20267;-61
2024/01/21 10:52:10;;;;;;;13.03;11.83;;;3.50;1.00;;;;;;5102600;28;20264;-62
2024/01/21 10:54:37;;;;;;;12.23;11.03;;;3.60;1.00;;;;;;5094121;28;20179;-62
2024/01/21 10:57:03;;;;;;;14.27;11.27;;;3.60;1.00;;;;;;5094193;28;20193;-62
2024/01/21 10:59:31;;;;;;;12.40;11.10;;;3.60;1.00;;;;;;5095063;28;20168;-62
2024/01/21 11:01:57;;;;;;;13.40;12.00;;;3.60;1.00;;;;;;5093139;28;20201;-61
2024/01/21 11:04:23;;;;;;;12.90;11.50;;;3.60;1.00;;;;;;5094832;28;20522;-62
2024/01/21 11:06:50;;;;;;;17.33;12.03;;;3.60;1.00;;;;;;5094115;28;20196;-62
2024/01/21 11:09:17;;;;;;;12.77;11.47;;;3.60;1.00;;;;;;5094531;28;20169;-62
2024/01/21 11:11:48;;;;;;;15.00;11.83;;;3.50;1.00;;;;;;5094425;28;20169;-62
2024/01/21 11:14:37;;;;;;;13.83;12.43;;;3.50;1.00;;;;;;5094704;28;20584;-62
2024/01/21 11:17:06;;;;;;;14.23;12.10;;;3.50;1.00;;;;;;5094360;28;20192;-61
2024/01/21 11:19:47;;;;;;;12.67;11.23;;;3.50;1.00;;;;;;5100101;28;20184;-62
2024/01/21 11:22:14;;;;;;;15.77;12.40;;;3.50;1.00;;;;;;5114272;28;20180;-62
2024/01/21 11:24:43;;;;;;;15.23;12.37;;;3.50;1.00;;;;;;5114466;28;20547;-62
2024/01/21 11:27:23;;;;;;;13.57;12.00;;;3.50;1.00;;;;;;5115007;28;20285;-63
2024/01/21 11:30:00;;;;;;;12.97;11.60;;;3.50;1.00;;;;;;5114306;28;20168;-61
2024/01/21 11:32:28;;;;;;;15.60;11.50;;;3.40;1.00;;;;;;5094467;28;20164;-61
2024/01/21 11:34:55;;;;;;;14.27;12.57;;;3.40;1.00;;;;;;5093823;28;20688;-62
2024/01/21 11:37:22;;;;;;;15.80;12.43;;;3.40;1.00;;;;;;5094249;28;20197;-62
2024/01/21 11:39:49;;;;;;;16.03;12.23;;;3.30;1.00;;;;;;5094045;28;20187;-63
2024/01/21 11:42:15;;;;;;;12.97;11.53;;;3.40;1.00;;;;;;5093749;28;20193;-62
2024/01/21 11:44:41;;;;;;;14.10;12.27;;;3.40;1.00;;;;;;5094047;28;20200;-63
2024/01/21 11:47:07;;;;;;;13.17;11.77;;;3.50;1.00;;;;;;5093659;28;20717;-61
2024/01/21 11:49:35;;;;;;;14.00;12.27;;;3.40;1.00;;;;;;5094458;28;20158;-62
2024/01/21 11:52:06;;;;;;;13.40;12.00;;;3.40;1.00;;;;;;5092251;28;20197;-62
2024/01/21 11:54:33;;;;;;;15.50;11.97;;;3.40;1.00;;;;;;5093980;28;20168;-63
2024/01/21 11:57:00;;;;;;;15.03;12.77;;;3.50;1.00;;;;;;5093575;28;20193;-61
2024/01/21 11:59:26;;;;;;;14.27;12.77;;;3.40;1.00;;;;;;5093801;28;20195;-62
2024/01/21 12:01:56;;;;;;;15.07;13.50;;;3.40;7.80;;;;;;5093046;28;20611;-62
2024/01/21 12:04:22;;;;;;;16.70;12.50;;;3.40;20.20;;;;;;5093460;28;20170;-62
2024/01/21 12:06:49;;;;;;;16.43;12.00;;;3.40;36.30;;;;;;5091620;28;20193;-62
2024/01/21 12:09:15;;;;;;;13.60;11.87;;;3.40;53.60;;;;;;5093602;28;20164;-62
2024/01/21 12:11:41;;;;;;;14.00;12.53;;;3.40;50.90;;;;;;5093507;28;20184;-62
2024/01/21 12:14:12;;;;;;;13.27;11.90;;;3.40;53.60;;;;;;5092455;28;20162;-62
2024/01/21 12:16:37;;;;;;;18.07;13.27;;;3.30;48.20;;;;;;5093404;28;20172;-61
2024/01/21 12:19:04;;;;;;;16.00;12.37;;;3.30;55.90;;;;;;5093498;28;20173;-61
2024/01/21 12:21:31;;;;;;;16.77;12.90;;;3.30;69.30;;;;;;5095634;28;20259;-62
2024/01/21 12:24:02;;;;;;;13.60;11.77;;;3.20;78.70;;;;;;5106285;28;20581;-61
2024/01/21 12:26:28;;;;;;;15.73;13.13;;;3.20;87.30;;;;;;5114165;28;20157;-62
2024/01/21 12:29:03;;;;;;;14.97;12.47;;;3.20;79.30;;;;;;5113545;28;20244;-61
2024/01/21 12:31:33;;;;;;;14.57;12.37;;;3.10;94.90;;;;;;5099229;28;20264;-62
2024/01/21 12:34:12;;;;;;;15.30;13.10;;;3.10;99.90;;;;;;5091911;28;20184;-61
2024/01/21 12:36:45;;;;;;;14.97;12.73;;;3.10;1.00;;;;;;5092877;28;20618;-61
2024/01/21 12:39:11;;;;;;;15.83;13.00;;;3.20;1.00;;;;;;5093411;28;20166;-61
2024/01/21 12:41:38;;;;;;;14.50;12.70;;;3.20;1.00;;;;;;5093098;28;20158;-62
2024/01/21 12:44:05;;;;;;;14.20;11.47;;;3.20;1.00;;;;;;5093457;28;20161;-61
2024/01/21 12:46:31;;;;;;;15.53;12.50;;;3.30;1.00;;;;;;5093178;28;20170;-61